Time;durP1;ratioP1;P1;durP2;ratioP2;P2;SDS_P1;SDS_P2;PMS_P1;PMS_P2;Temp;Humidity;BMP_temperature;BMP_pressure;BME280_temperature;BME280_humidity;BME280_pressure;Samples;Min_cycle;Max_cycle;Signal;HPM_P1;HPM_P2
2023/07/05 00:00:26;;;;;;;7.87;4.13;;;;;;;11.02;100.00;100677.47;7389230;19;20400;-44
2023/07/05 00:02:56;;;;;;;7.07;3.53;;;;;;;11.03;100.00;100674.06;7366137;19;20409;-44
2023/07/05 00:05:26;;;;;;;8.53;3.90;;;;;;;11.07;100.00;100663.03;7388141;19;21046;-44
2023/07/05 00:07:56;;;;;;;5.83;3.27;;;;;;;11.00;100.00;100658.44;7365328;19;20946;-44
2023/07/05 00:10:26;;;;;;;5.33;3.70;;;;;;;11.08;100.00;100657.06;7389286;19;20479;-44
2023/07/05 00:12:59;;;;;;;6.23;3.80;;;;;;;11.12;100.00;100666.66;7364949;19;20411;-44
2023/07/05 00:15:29;;;;;;;8.10;3.57;;;;;;;11.06;100.00;100664.75;7389390;19;20442;-45
2023/07/05 00:17:59;;;;;;;10.53;3.60;;;;;;;11.00;100.00;100661.94;7368709;19;20453;-44
2023/07/05 00:20:29;;;;;;;4.73;3.60;;;;;;;10.99;100.00;100656.69;7395720;19;20959;-43
2023/07/05 00:22:59;;;;;;;6.80;3.60;;;;;;;11.08;100.00;100657.94;7365379;19;20932;-44
2023/07/05 00:25:28;;;;;;;6.90;3.00;;;;;;;11.05;100.00;100646.59;7392090;19;20429;-43
2023/07/05 00:28:01;;;;;;;5.20;3.50;;;;;;;11.15;100.00;100635.81;7370120;19;20519;-45
2023/07/05 00:30:30;;;;;;;5.50;3.50;;;;;;;11.14;100.00;100639.22;7394234;19;20404;-44
2023/07/05 00:33:00;;;;;;;6.40;2.80;;;;;;;11.10;100.00;100623.53;7365901;19;20446;-44
2023/07/05 00:35:30;;;;;;;5.23;3.33;;;;;;;11.24;100.00;100631.81;7392472;19;20413;-44
2023/07/05 00:37:59;;;;;;;3.97;2.90;;;;;;;11.15;100.00;100632.34;7369180;19;20430;-44
2023/07/05 00:40:29;;;;;;;8.20;3.40;;;;;;;11.23;100.00;100640.38;7395171;19;20403;-44
2023/07/05 00:43:01;;;;;;;11.53;4.10;;;;;;;11.20;100.00;100641.16;7368617;19;20429;-44
2023/07/05 00:45:59;;;;;;;5.13;3.03;;;;;;;11.17;100.00;100652.22;7390065;19;20413;-44
2023/07/05 00:48:36;;;;;;;5.30;3.80;;;;;;;11.23;100.00;100650.72;7364405;19;20413;-44
2023/07/05 00:51:08;;;;;;;5.33;3.43;;;;;;;11.18;100.00;100643.66;7389767;19;20401;-43
2023/07/05 00:53:40;;;;;;;5.13;3.10;;;;;;;11.13;100.00;100645.19;7365583;19;20797;-44
2023/07/05 00:56:12;;;;;;;8.47;3.03;;;;;;;11.12;100.00;100643.44;7395271;19;20437;-43
2023/07/05 00:58:45;;;;;;;6.13;3.43;;;;;;;11.20;100.00;100639.44;7366294;19;20396;-44
2023/07/05 01:01:14;;;;;;;3.67;2.90;;;;;;;11.24;100.00;100642.13;7391069;19;20396;-44
2023/07/05 01:03:45;;;;;;;5.67;3.63;;;;;;;11.19;100.00;100641.97;7366284;19;20425;-44
2023/07/05 01:06:16;;;;;;;5.83;3.20;;;;;;;11.20;100.00;100652.38;7391341;19;20818;-43
2023/07/05 01:08:46;;;;;;;6.00;3.43;;;;;;;11.13;100.00;100642.59;7365963;19;20491;-44
2023/07/05 01:11:20;;;;;;;6.40;3.37;;;;;;;11.13;100.00;100644.31;7390114;19;20395;-44
2023/07/05 01:13:57;;;;;;;11.10;3.53;;;;;;;11.14;100.00;100649.56;7367381;19;20510;-44
2023/07/05 01:16:38;;;;;;;11.27;4.17;;;;;;;11.14;100.00;100634.06;7391347;19;20451;-44
2023/07/05 01:19:26;;;;;;;6.50;3.33;;;;;;;11.17;100.00;100635.84;7368214;19;20434;-44
2023/07/05 01:22:00;;;;;;;10.43;3.50;;;;;;;11.21;100.00;100633.47;7393674;19;20476;-44
2023/07/05 01:25:01;;;;;;;6.43;4.50;;;;;;;11.31;100.00;100626.03;7372606;19;20550;-44
2023/07/05 01:28:01;;;;;;;7.13;3.90;;;;;;;11.27;100.00;100616.44;7367089;19;20395;-44
2023/07/05 01:30:53;;;;;;;10.03;3.80;;;;;;;11.27;100.00;100606.09;7389132;19;20410;-44
2023/07/05 01:33:29;;;;;;;7.33;3.50;;;;;;;11.33;100.00;100603.72;7363031;19;20457;-45
2023/07/05 01:35:59;;;;;;;9.43;4.27;;;;;;;11.36;100.00;100601.25;7393683;19;20452;-43
2023/07/05 01:38:29;;;;;;;7.73;3.57;;;;;;;11.44;100.00;100598.97;7377424;19;20432;-43
2023/07/05 01:41:02;;;;;;;6.37;4.13;;;;;;;11.42;100.00;100590.25;7395983;19;20459;-44
2023/07/05 01:43:33;;;;;;;5.83;3.90;;;;;;;11.47;100.00;100589.63;7372911;19;20413;-44
2023/07/05 01:46:23;;;;;;;11.27;4.73;;;;;;;11.45;100.00;100599.00;7395825;19;20428;-45
2023/07/05 01:49:25;;;;;;;10.30;4.20;;;;;;;11.38;100.00;100594.44;7372751;19;20966;-43
2023/07/05 01:52:00;;;;;;;10.67;4.10;;;;;;;11.35;100.00;100597.78;7398216;19;20492;-44
2023/07/05 01:54:37;;;;;;;10.10;4.37;;;;;;;11.37;100.00;100595.25;7371815;19;20797;-45
2023/07/05 01:57:12;;;;;;;8.10;4.37;;;;;;;11.36;100.00;100596.09;7370839;19;20491;-44
2023/07/05 01:59:47;;;;;;;11.03;5.13;;;;;;;11.42;100.00;100583.41;7394533;19;20406;-44
2023/07/05 02:02:18;;;;;;;12.17;5.67;;;;;;;11.47;100.00;100589.63;7371848;19;20451;-44
2023/07/05 02:04:48;;;;;;;11.70;4.93;;;;;;;11.55;100.00;100571.81;7394306;19;20395;-44
2023/07/05 02:07:26;;;;;;;10.77;5.00;;;;;;;11.60;100.00;100569.38;7375315;19;20792;-45
2023/07/05 02:09:56;;;;;;;15.60;5.33;;;;;;;11.60;100.00;100556.44;7397956;19;20411;-44
2023/07/05 02:12:27;;;;;;;10.13;5.80;;;;;;;11.52;100.00;100555.28;7377501;19;20416;-44
2023/07/05 02:14:57;;;;;;;7.00;5.07;;;;;;;11.45;100.00;100546.47;7396358;19;20402;-45
2023/07/05 02:17:27;;;;;;;8.97;5.33;;;;;;;11.52;100.00;100537.19;7376295;19;20409;-44
2023/07/05 02:19:56;;;;;;;14.33;4.70;;;;;;;11.44;100.00;100514.56;7397615;19;20407;-43
2023/07/05 02:22:29;;;;;;;16.47;6.10;;;;;;;11.47;100.00;100514.69;7375363;19;20396;-44
2023/07/05 02:24:58;;;;;;;12.73;6.03;;;;;;;11.45;100.00;100498.25;7399613;19;21047;-44
2023/07/05 02:27:29;;;;;;;9.17;5.63;;;;;;;11.50;100.00;100489.78;7374723;19;20408;-44
2023/07/05 02:29:59;;;;;;;15.97;6.97;;;;;;;11.48;100.00;100493.19;7397010;19;20433;-44
2023/07/05 02:32:29;;;;;;;11.40;6.60;;;;;;;11.60;100.00;100502.19;7374337;19;20428;-44
2023/07/05 02:35:01;;;;;;;15.07;6.07;;;;;;;11.55;100.00;100498.56;7396652;19;20406;-44
2023/07/05 02:37:34;;;;;;;14.10;6.13;;;;;;;11.54;100.00;100499.41;7374996;19;20491;-44
2023/07/05 02:40:04;;;;;;;9.27;5.57;;;;;;;11.52;100.00;100501.03;7396600;19;20800;-43
2023/07/05 02:42:34;;;;;;;15.77;7.07;;;;;;;11.54;100.00;100486.47;7375038;19;20416;-44
2023/07/05 02:45:04;;;;;;;18.53;6.00;;;;;;;11.57;100.00;100476.22;7396210;19;20482;-44
2023/07/05 02:47:33;;;;;;;12.13;5.87;;;;;;;11.60;100.00;100466.88;7374176;19;20413;-44
2023/07/05 02:50:03;;;;;;;10.13;5.80;;;;;;;11.58;100.00;100453.03;7396643;19;20416;-45
2023/07/05 02:52:35;;;;;;;13.70;5.93;;;;;;;11.60;100.00;100445.34;7373339;19;20845;-44
2023/07/05 02:55:05;;;;;;;10.23;5.63;;;;;;;11.63;100.00;100440.25;7396103;19;21019;-43
2023/07/05 02:57:34;;;;;;;11.30;6.40;;;;;;;11.70;100.00;100424.13;7372641;19;20432;-43
2023/07/05 03:00:06;;;;;;;11.20;6.00;;;;;;;11.71;100.00;100410.41;7396030;19;20941;-44
2023/07/05 03:02:35;;;;;;;8.70;5.53;;;;;;;11.74;100.00;100407.88;7372236;19;20434;-43
2023/07/05 03:05:09;;;;;;;13.53;6.00;;;;;;;11.82;100.00;100383.97;7395601;19;20409;-45
2023/07/05 03:07:41;;;;;;;10.57;5.60;;;;;;;11.82;100.00;100384.88;7371930;19;20436;-43
2023/07/05 03:10:12;;;;;;;11.70;6.03;;;;;;;11.78;100.00;100384.75;7395902;19;20971;-44
2023/07/05 03:12:42;;;;;;;15.53;5.83;;;;;;;11.80;100.00;100375.31;7370694;19;20477;-44
2023/07/05 03:15:12;;;;;;;15.23;6.03;;;;;;;11.87;100.00;100359.16;7395044;19;20482;-44
2023/07/05 03:17:42;;;;;;;14.30;5.97;;;;;;;11.93;100.00;100355.88;7370408;19;20506;-44
2023/07/05 03:20:12;;;;;;;12.73;6.07;;;;;;;11.95;100.00;100337.00;7395240;19;20442;-45
2023/07/05 03:22:45;;;;;;;13.47;5.37;;;;;;;11.95;100.00;100328.38;7372859;19;20429;-44
2023/07/05 03:25:17;;;;;;;16.30;6.40;;;;;;;11.97;100.00;100337.94;7395130;19;20819;-44
2023/07/05 03:27:47;;;;;;;10.13;5.73;;;;;;;12.00;100.00;100327.66;7373762;19;20427;-44
2023/07/05 03:30:16;;;;;;;10.10;5.63;;;;;;;12.08;100.00;100329.63;7395327;19;20975;-44
2023/07/05 03:32:46;;;;;;;12.13;5.50;;;;;;;12.06;100.00;100331.28;7372682;19;20428;-44
2023/07/05 03:35:16;;;;;;;9.57;5.27;;;;;;;12.08;100.00;100337.38;7394590;19;20405;-44
2023/07/05 03:37:49;;;;;;;10.63;5.80;;;;;;;12.12;100.00;100341.81;7370837;19;20429;-44
2023/07/05 03:40:19;;;;;;;10.00;5.70;;;;;;;12.10;100.00;100351.25;7395473;19;20896;-44
2023/07/05 03:42:48;;;;;;;13.70;6.57;;;;;;;12.09;100.00;100354.66;7372182;19;20779;-44
2023/07/05 03:45:18;;;;;;;10.50;5.80;;;;;;;12.13;100.00;100349.63;7394847;19;20418;-44
2023/07/05 03:47:48;;;;;;;12.67;5.00;;;;;;;12.16;100.00;100364.34;7372432;19;20979;-45
2023/07/05 03:50:17;;;;;;;17.73;6.00;;;;;;;12.18;100.00;100362.69;7397212;19;20449;-44
2023/07/05 03:52:49;;;;;;;14.03;5.13;;;;;;;12.21;100.00;100373.09;7370202;19;20528;-44
2023/07/05 03:55:19;;;;;;;11.90;5.80;;;;;;;12.20;100.00;100361.00;7394598;19;20432;-44
2023/07/05 03:57:49;;;;;;;12.40;5.70;;;;;;;12.19;100.00;100361.84;7368785;19;20446;-44
2023/07/05 04:00:19;;;;;;;17.93;7.00;;;;;;;12.23;100.00;100360.22;7394955;19;20493;-44
2023/07/05 04:02:49;;;;;;;14.27;7.00;;;;;;;12.23;100.00;100362.81;7369792;19;20529;-44
2023/07/05 04:05:18;;;;;;;18.27;6.93;;;;;;;12.20;100.00;100355.84;7394241;19;20405;-44
2023/07/05 04:07:51;;;;;;;14.53;6.23;;;;;;;12.20;100.00;100367.91;7370791;19;20451;-44
2023/07/05 04:10:20;;;;;;;12.73;7.17;;;;;;;12.15;100.00;100366.06;7396879;19;20518;-42
2023/07/05 04:12:53;;;;;;;15.67;8.03;;;;;;;12.14;100.00;100361.72;7369094;19;20510;-44
2023/07/05 04:15:22;;;;;;;11.60;6.77;;;;;;;12.11;100.00;100356.44;7393916;19;20419;-45
2023/07/05 04:17:52;;;;;;;9.67;6.27;;;;;;;12.11;100.00;100348.69;7369693;19;20505;-43
2023/07/05 04:20:22;;;;;;;16.20;7.90;;;;;;;12.06;100.00;100339.06;7394733;19;20411;-44
2023/07/05 04:22:54;;;;;;;14.23;7.63;;;;;;;12.06;100.00;100326.13;7369534;19;20478;-44
2023/07/05 04:25:23;;;;;;;17.27;7.40;;;;;;;12.02;100.00;100317.38;7394270;19;20438;-45
2023/07/05 04:27:53;;;;;;;16.23;7.07;;;;;;;11.97;100.00;100317.25;7368113;19;20451;-44
2023/07/05 04:30:23;;;;;;;12.70;7.37;;;;;;;11.95;100.00;100308.56;7396522;19;20423;-44
2023/07/05 04:32:52;;;;;;;15.77;7.23;;;;;;;11.96;100.00;100310.34;7369637;19;20818;-44
2023/07/05 04:35:22;;;;;;;20.27;7.97;;;;;;;11.94;100.00;100306.81;7393762;19;20488;-44
2023/07/05 04:37:54;;;;;;;14.97;7.57;;;;;;;11.88;100.00;100301.44;7366337;19;20949;-44
2023/07/05 04:40:24;;;;;;;20.30;8.77;;;;;;;11.85;100.00;100293.63;7394446;19;20414;-44
2023/07/05 04:42:54;;;;;;;10.80;7.80;;;;;;;11.85;100.00;100288.47;7368990;19;20425;-42
2023/07/05 04:45:24;;;;;;;15.43;7.20;;;;;;;11.83;100.00;100277.19;7393380;19;20485;-44
2023/07/05 04:47:53;;;;;;;15.17;8.30;;;;;;;11.83;100.00;100272.00;7368838;19;20795;-44
2023/07/05 04:50:23;;;;;;;19.77;7.77;;;;;;;11.81;100.00;100258.16;7394097;19;20421;-43
2023/07/05 04:52:56;;;;;;;15.53;8.20;;;;;;;11.80;100.00;100251.25;7368544;19;21478;-44
2023/07/05 04:55:26;;;;;;;14.90;8.37;;;;;;;11.77;100.00;100245.97;7393732;19;20432;-44
2023/07/05 04:57:56;;;;;;;16.20;9.00;;;;;;;11.76;100.00;100245.13;7366865;19;20424;-44
2023/07/05 05:00:26;;;;;;;12.80;8.50;;;;;;;11.79;100.00;100223.66;7395622;19;20408;-44
2023/07/05 05:02:56;;;;;;;15.80;9.60;;;;;;;11.77;100.00;100215.84;7368508;19;20429;-45
2023/07/05 05:05:29;;;;;;;16.50;8.67;;;;;;;11.79;100.00;100210.75;7392964;19;20960;-44
2023/07/05 05:08:01;;;;;;;16.83;8.47;;;;;;;11.80;100.00;100204.72;7368713;19;20542;-44
2023/07/05 05:10:30;;;;;;;17.60;9.40;;;;;;;11.81;100.00;100201.31;7393607;19;20405;-45
2023/07/05 05:13:00;;;;;;;18.60;10.63;;;;;;;11.82;100.00;100188.44;7368080;19;20445;-45
2023/07/05 05:15:30;;;;;;;15.93;9.50;;;;;;;11.86;100.00;100179.91;7393715;19;20434;-43
2023/07/05 05:17:59;;;;;;;20.33;9.43;;;;;;;11.85;100.00;100183.34;7368760;19;20534;-44
2023/07/05 05:20:31;;;;;;;15.90;8.40;;;;;;;11.85;100.00;100175.59;7392777;19;20797;-44
2023/07/05 05:23:03;;;;;;;21.93;13.00;;;;;;;11.90;100.00;100183.50;7368330;19;20459;-44
2023/07/05 05:25:33;;;;;;;18.37;9.40;;;;;;;11.87;100.00;100168.78;7392766;19;20499;-46
2023/07/05 05:28:03;;;;;;;22.93;10.33;;;;;;;11.88;100.00;100167.94;7368528;19;20452;-44
2023/07/05 05:30:33;;;;;;;21.07;11.37;;;;;;;11.89;100.00;100155.84;7392456;19;20411;-43
2023/07/05 05:33:03;;;;;;;26.57;12.83;;;;;;;11.87;100.00;100148.09;7368649;19;20458;-44
2023/07/05 05:35:35;;;;;;;21.60;12.87;;;;;;;11.91;100.00;100151.63;7392134;19;20436;-45
2023/07/05 05:38:07;;;;;;;16.63;10.53;;;;;;;11.90;100.00;100149.88;7367789;19;20413;-45
2023/07/05 05:40:36;;;;;;;22.30;9.93;;;;;;;11.92;100.00;100136.97;7391053;19;20408;-43
2023/07/05 05:43:06;;;;;;;24.27;13.93;;;;;;;11.91;100.00;100125.78;7367672;19;20985;-44
2023/07/05 05:45:36;;;;;;;17.73;10.57;;;;;;;11.89;100.00;100137.75;7392410;19;20422;-44
2023/07/05 05:48:07;;;;;;;17.53;10.70;;;;;;;11.93;100.00;100129.25;7367506;19;20559;-44
2023/07/05 05:50:37;;;;;;;24.60;13.13;;;;;;;11.99;100.00;100108.75;7391129;19;20398;-44
2023/07/05 05:53:10;;;;;;;26.27;12.37;;;;;;;11.96;100.00;100098.34;7366733;19;20444;-44
2023/07/05 05:55:40;;;;;;;20.17;11.23;;;;;;;11.97;100.00;100094.03;7390812;19;20524;-44
2023/07/05 05:58:10;;;;;;;22.03;11.10;;;;;;;12.01;100.00;100085.53;7368056;19;20987;-44
2023/07/05 06:00:40;;;;;;;20.80;12.73;;;;;;;12.00;100.00;100087.22;7390642;19;20760;-44
2023/07/05 06:03:10;;;;;;;22.93;11.83;;;;;;;12.00;100.00;100084.63;7367579;19;20511;-46
2023/07/05 06:05:41;;;;;;;19.77;9.97;;;;;;;11.97;100.00;100071.66;7390346;19;20461;-42
2023/07/05 06:08:13;;;;;;;21.90;10.63;;;;;;;12.02;100.00;100070.03;7368277;19;20414;-44
2023/07/05 06:10:42;;;;;;;19.10;11.17;;;;;;;12.02;100.00;100064.84;7390845;19;20409;-44
2023/07/05 06:13:12;;;;;;;18.97;10.87;;;;;;;12.04;100.00;100064.09;7365023;19;20971;-44
2023/07/05 06:15:42;;;;;;;19.47;10.10;;;;;;;12.06;100.00;100046.88;7389814;19;20489;-44
2023/07/05 06:18:11;;;;;;;16.57;10.37;;;;;;;12.10;100.00;100064.22;7366281;19;20872;-44
2023/07/05 06:20:41;;;;;;;20.70;10.93;;;;;;;12.12;100.00;100059.97;7390308;19;20960;-44
2023/07/05 06:23:13;;;;;;;17.23;10.33;;;;;;;12.15;100.00;100041.91;7370970;19;20512;-44
2023/07/05 06:25:43;;;;;;;18.07;11.13;;;;;;;12.17;100.00;100044.53;7396388;19;20443;-44
2023/07/05 06:28:12;;;;;;;19.73;11.43;;;;;;;12.24;100.00;100043.84;7371402;19;20993;-44
2023/07/05 06:30:42;;;;;;;22.67;12.20;;;;;;;12.23;100.00;100045.59;7396440;19;20496;-44
2023/07/05 06:33:11;;;;;;;23.93;10.40;;;;;;;12.22;100.00;100046.44;7373297;19;20425;-44
2023/07/05 06:35:41;;;;;;;20.07;10.67;;;;;;;12.23;100.00;100040.41;7397105;19;20439;-44
2023/07/05 06:38:13;;;;;;;17.67;10.43;;;;;;;12.22;100.00;100041.25;7373678;19;20448;-44
2023/07/05 06:40:43;;;;;;;17.23;11.43;;;;;;;12.27;100.00;100044.78;7397110;19;20409;-44
2023/07/05 06:43:12;;;;;;;20.60;10.30;;;;;;;12.23;100.00;100058.50;7367627;19;20975;-45
2023/07/05 06:45:44;;;;;;;16.07;10.07;;;;;;;12.31;100.00;100058.66;7395914;19;20425;-44
2023/07/05 06:48:14;;;;;;;24.67;11.20;;;;;;;12.38;100.00;100052.81;7373035;19;20795;-44
2023/07/05 06:50:44;;;;;;;16.90;10.83;;;;;;;12.40;100.00;100058.00;7399329;19;20414;-44
2023/07/05 06:53:16;;;;;;;22.20;11.20;;;;;;;12.40;100.00;100069.25;7371647;19;20438;-43
2023/07/05 06:55:52;;;;;;;20.67;10.67;;;;;;;12.35;100.00;100062.22;7396226;19;20436;-43
2023/07/05 06:58:22;;;;;;;21.30;11.77;;;;;;;12.41;100.00;100065.81;7373507;19;20466;-46
2023/07/05 07:00:53;;;;;;;19.47;10.90;;;;;;;12.35;100.00;100080.34;7396050;19;20412;-44
2023/07/05 07:03:23;;;;;;;21.00;9.97;;;;;;;12.37;100.00;100074.34;7373458;19;20524;-44
2023/07/05 07:05:53;;;;;;;19.53;10.33;;;;;;;12.37;100.00;100076.91;7396038;19;20449;-43
2023/07/05 07:08:30;;;;;;;21.50;10.87;;;;;;;12.35;100.00;100077.75;7371668;19;20509;-44
2023/07/05 07:11:01;;;;;;;19.37;11.07;;;;;;;12.37;100.00;100063.13;7393423;19;20396;-44
2023/07/05 07:13:31;;;;;;;19.00;12.00;;;;;;;12.43;100.00;100052.94;7367489;19;20400;-43
2023/07/05 07:16:07;;;;;;;21.97;11.27;;;;;;;12.41;100.00;100045.13;7393150;19;20444;-43
2023/07/05 07:18:37;;;;;;;23.00;12.07;;;;;;;12.37;100.00;100047.63;7368254;19;20757;-44
2023/07/05 07:21:08;;;;;;;23.23;9.80;;;;;;;12.29;100.00;100066.41;7397303;19;20436;-44
2023/07/05 07:23:41;;;;;;;23.20;9.60;;;;;;;12.32;100.00;100069.91;7369557;19;20488;-44
2023/07/05 07:26:13;;;;;;;15.60;9.80;;;;;;;12.32;100.00;100067.31;7392597;19;20434;-44
2023/07/05 07:28:42;;;;;;;19.23;9.80;;;;;;;12.38;100.00;100039.91;7368950;19;20423;-44
2023/07/05 07:31:13;;;;;;;17.33;10.03;;;;;;;12.41;100.00;100041.69;7394881;19;20388;-44
2023/07/05 07:33:43;;;;;;;24.93;11.37;;;;;;;12.45;100.00;100035.72;7366398;19;20409;-42
2023/07/05 07:36:13;;;;;;;20.10;11.10;;;;;;;12.45;100.00;100030.53;7392195;19;20440;-43
2023/07/05 07:38:46;;;;;;;18.20;11.40;;;;;;;12.49;100.00;100042.72;7367457;19;20769;-44
2023/07/05 07:41:17;;;;;;;17.07;10.40;;;;;;;12.49;100.00;100060.81;7392121;19;20809;-45
2023/07/05 07:43:47;;;;;;;21.37;10.90;;;;;;;12.55;100.00;100058.38;7371405;19;20447;-44
2023/07/05 07:46:19;;;;;;;16.13;11.13;;;;;;;12.60;100.00;100034.34;7395650;19;20512;-44
2023/07/05 07:48:51;;;;;;;18.13;9.97;;;;;;;12.58;100.00;100033.41;7372496;19;20782;-44
2023/07/05 07:51:22;;;;;;;22.73;11.30;;;;;;;12.65;100.00;100037.88;7398276;19;20777;-44
2023/07/05 07:54:13;;;;;;;20.83;11.33;;;;;;;12.71;100.00;100035.41;7371631;19;20424;-44
2023/07/05 07:56:44;;;;;;;16.53;11.40;;;;;;;12.71;100.00;100057.84;7395333;19;20457;-44
2023/07/05 07:59:14;;;;;;;17.93;10.33;;;;;;;12.78;100.00;100049.38;7371652;19;20428;-44
2023/07/05 08:01:44;;;;;;;17.73;10.60;;;;;;;12.82;100.00;100049.47;7397728;19;20414;-44
2023/07/05 08:04:15;;;;;;;21.77;11.70;;;;;;;12.92;100.00;100042.75;7370891;19;20440;-44
2023/07/05 08:06:46;;;;;;;19.20;10.60;;;;;;;12.94;100.00;100043.69;7395568;19;20449;-45
2023/07/05 08:09:22;;;;;;;19.40;10.87;;;;;;;13.03;100.00;100035.22;7372187;19;20898;-44
2023/07/05 08:11:52;;;;;;;17.10;10.20;;;;;;;13.19;100.00;100035.53;7394808;19;20947;-45
2023/07/05 08:14:22;;;;;;;23.60;11.60;;;;;;;13.21;100.00;100039.00;7371097;19;20454;-44
2023/07/05 08:16:52;;;;;;;19.07;10.30;;;;;;;13.30;100.00;100028.84;7395412;19;20562;-44
2023/07/05 08:19:21;;;;;;;19.60;10.57;;;;;;;13.31;100.00;100032.28;7371578;19;20446;-45
2023/07/05 08:21:51;;;;;;;20.77;11.00;;;;;;;13.35;100.00;100037.53;7395274;19;20399;-45
2023/07/05 08:24:23;;;;;;;15.67;10.00;;;;;;;13.39;100.00;100040.22;7371368;19;20995;-43
2023/07/05 08:26:59;;;;;;;15.50;10.73;;;;;;;13.37;100.00;100055.72;7394701;19;20442;-44
2023/07/05 08:29:28;;;;;;;17.23;10.70;;;;;;;13.39;100.00;100058.34;7374363;19;20447;-43
2023/07/05 08:31:58;;;;;;;18.90;10.80;;;;;;;13.49;100.00;100053.41;7397279;19;20411;-44
2023/07/05 08:34:30;;;;;;;19.23;11.40;;;;;;;13.60;100.00;100044.94;7371249;19;21102;-43
2023/07/05 08:37:01;;;;;;;20.07;12.43;;;;;;;13.72;100.00;100036.50;7371642;19;20987;-44
2023/07/05 08:39:34;;;;;;;18.10;10.83;;;;;;;13.72;100.00;100041.69;7389028;19;20412;-44
2023/07/05 08:42:20;;;;;;;17.00;10.10;;;;;;;13.71;100.00;100039.94;7365893;19;20435;-44
2023/07/05 08:44:59;;;;;;;15.30;9.90;;;;;;;13.82;100.00;100048.78;7385511;19;20938;-45
2023/07/05 08:47:35;;;;;;;19.33;10.13;;;;;;;13.99;100.00;100030.03;7365137;19;20484;-45
2023/07/05 08:50:09;;;;;;;20.03;10.00;;;;;;;13.95;100.00;100033.44;7390257;19;20423;-44
2023/07/05 08:53:01;;;;;;;15.30;9.87;;;;;;;14.16;100.00;100031.19;7365530;19;20399;-44
2023/07/05 08:55:47;;;;;;;22.07;12.20;;;;;;;14.43;100.00;100032.47;7388978;19;20413;-45
2023/07/05 08:58:20;;;;;;;15.23;9.70;;;;;;;14.62;100.00;100009.34;7367217;19;20963;-45
2023/07/05 09:00:55;;;;;;;14.70;9.80;;;;;;;14.83;100.00;100011.34;7394581;19;20395;-44
2023/07/05 09:03:28;;;;;;;18.10;9.23;;;;;;;14.91;100.00;99998.47;7364679;19;20413;-44
2023/07/05 09:06:11;;;;;;;15.40;9.30;;;;;;;15.05;100.00;100005.56;7390027;19;20491;-44
2023/07/05 09:08:51;;;;;;;17.77;8.77;;;;;;;15.09;100.00;100022.94;7365715;19;20447;-45
2023/07/05 09:11:28;;;;;;;10.30;7.60;;;;;;;15.16;100.00;100016.94;7387789;19;20927;-43
2023/07/05 09:14:06;;;;;;;14.90;9.73;;;;;;;15.41;100.00;100026.72;7355064;19;20430;-43
2023/07/05 09:16:43;;;;;;;11.50;7.17;;;;;;;15.52;100.00;100038.09;7386789;19;20918;-43
2023/07/05 09:19:17;;;;;;;10.80;7.27;;;;;;;15.44;100.00;100064.00;7362655;19;20435;-45
2023/07/05 09:21:49;;;;;;;13.90;7.97;;;;;;;15.55;100.00;100079.75;7386007;19;20817;-45
2023/07/05 09:24:22;;;;;;;9.50;6.60;;;;;;;15.52;100.00;100101.38;7362176;19;20479;-45
2023/07/05 09:26:56;;;;;;;11.23;6.20;;;;;;;15.41;100.00;100148.88;7386729;19;20865;-43
2023/07/05 09:29:32;;;;;;;12.60;6.33;;;;;;;15.57;100.00;100204.53;7365469;19;20427;-44
2023/07/05 09:32:06;;;;;;;5.70;3.50;;;;;;;15.65;100.00;100260.13;7364615;19;21006;-43
2023/07/05 09:34:39;;;;;;;6.07;3.40;;;;;;;15.61;100.00;100308.59;7381937;19;20399;-43
2023/07/05 09:37:18;;;;;;;5.27;2.90;;;;;;;15.38;100.00;100362.84;7362216;19;20468;-43
2023/07/05 09:39:58;;;;;;;15.33;7.37;;;;;;;15.38;100.00;100417.41;7391265;19;20487;-43
2023/07/05 09:42:35;;;;;;;36.10;15.97;;;;;;;15.37;100.00;100462.47;7368437;19;20398;-43
2023/07/05 09:45:05;;;;;;;8.97;4.73;;;;;;;15.53;100.00;100476.59;7390915;19;20407;-43
2023/07/05 09:47:35;;;;;;;16.27;8.53;;;;;;;15.78;100.00;100483.09;7369067;19;20451;-43
2023/07/05 09:50:13;;;;;;;11.20;6.07;;;;;;;16.03;100.00;100488.69;7389315;19;20433;-44
2023/07/05 09:52:44;;;;;;;11.33;6.17;;;;;;;16.11;100.00;100490.53;7367427;19;20990;-43
2023/07/05 09:55:15;;;;;;;6.97;3.90;;;;;;;16.06;100.00;100519.97;7390521;19;20407;-43
2023/07/05 09:57:48;;;;;;;8.80;2.93;;;;;;;16.08;100.00;100500.88;7369463;19;20448;-45
2023/07/05 10:00:26;;;;;;;5.60;3.33;;;;;;;16.37;100.00;100521.25;7401335;19;20431;-44
2023/07/05 10:02:59;;;;;;;5.10;3.03;;;;;;;16.48;100.00;100530.09;7374168;19;20494;-43
2023/07/05 10:05:31;;;;;;;5.90;2.67;;;;;;;16.44;100.00;100551.75;7397298;19;20411;-43
2023/07/05 10:08:03;;;;;;;8.90;4.57;;;;;;;16.62;100.00;100524.22;7373496;19;20435;-43
2023/07/05 10:10:36;;;;;;;7.77;4.10;;;;;;;16.67;100.00;100522.53;7396787;19;20415;-45
2023/07/05 10:13:15;;;;;;;7.07;3.23;;;;;;;16.73;100.00;100513.06;7373015;19;20490;-43
2023/07/05 10:15:47;;;;;;;14.43;6.30;;;;;;;16.68;100.00;100503.44;7399627;19;20434;-45
2023/07/05 10:18:33;;;;;;;10.37;5.33;;;;;;;16.80;100.00;100468.84;7373076;19;20435;-43
2023/07/05 10:21:05;;;;;;;7.93;3.80;;;;;;;16.72;100.00;100438.38;7397806;19;20531;-44
2023/07/05 10:23:35;;;;;;;12.07;5.53;;;;;;;16.83;100.00;100368.16;7369739;19;21039;-43
2023/07/05 10:26:07;;;;;;;8.97;4.47;;;;;;;16.89;100.00;100354.34;7398286;19;20527;-45
2023/07/05 10:28:43;;;;;;;10.10;5.40;;;;;;;16.90;100.00;100349.97;7374515;19;20793;-43
2023/07/05 10:31:30;;;;;;;9.83;5.50;;;;;;;17.13;100.00;100358.06;7397273;19;20407;-44
2023/07/05 10:34:07;;;;;;;9.80;3.43;;;;;;;16.98;100.00;100340.53;7372760;19;20449;-44
2023/07/05 10:36:46;;;;;;;6.40;3.30;;;;;;;17.27;100.00;100365.97;7398661;19;20449;-43
2023/07/05 10:39:21;;;;;;;6.40;2.80;;;;;;;17.33;100.00;100354.72;7372190;19;20439;-44
2023/07/05 10:41:51;;;;;;;7.00;3.40;;;;;;;17.08;100.00;100305.88;7397473;19;20878;-43
2023/07/05 10:44:27;;;;;;;6.60;2.63;;;;;;;17.03;100.00;100297.16;7370273;19;20434;-44
2023/07/05 10:47:00;;;;;;;3.50;2.00;;;;;;;16.85;100.00;100296.13;7398350;19;20443;-45
2023/07/05 10:49:33;;;;;;;3.97;2.30;;;;;;;16.72;100.00;100302.09;7377127;19;21024;-43
2023/07/05 10:52:06;;;;;;;10.10;2.40;;;;;;;16.63;100.00;100294.16;7372245;19;20415;-43
2023/07/05 10:54:39;;;;;;;6.30;2.80;;;;;;;16.71;100.00;100322.03;7398377;19;20438;-44
2023/07/05 10:57:16;;;;;;;5.70;3.00;;;;;;;16.84;100.00;100285.69;7373598;19;20466;-44
2023/07/05 10:59:53;;;;;;;6.60;2.77;;;;;;;16.78;100.00;100260.47;7396277;19;20424;-44
2023/07/05 11:02:36;;;;;;;14.23;6.13;;;;;;;16.72;100.00;100270.84;7373336;19;20429;-44
2023/07/05 11:05:07;;;;;;;5.70;3.03;;;;;;;16.60;100.00;100232.50;7395430;19;20441;-42
2023/07/05 11:07:37;;;;;;;7.97;3.10;;;;;;;16.49;100.00;100216.81;7372751;19;20427;-44
2023/07/05 11:10:07;;;;;;;8.07;3.17;;;;;;;16.47;100.00;100236.75;7391962;19;20400;-43
2023/07/05 11:12:36;;;;;;;11.43;6.20;;;;;;;16.47;100.00;100224.59;7372162;19;20416;-43
2023/07/05 11:15:12;;;;;;;7.17;2.07;;;;;;;16.59;100.00;100247.28;7394903;19;20486;-45
2023/07/05 11:17:43;;;;;;;10.60;5.27;;;;;;;16.54;100.00;100220.31;7371240;19;20429;-43
2023/07/05 11:20:43;;;;;;;13.13;3.60;;;;;;;16.61;100.00;100197.78;7395505;19;20404;-43
2023/07/05 11:23:14;;;;;;;15.23;4.20;;;;;;;16.60;100.00;100176.09;7372300;19;20419;-43
2023/07/05 11:25:59;;;;;;;2.47;1.10;;;;;;;16.65;100.00;100190.88;7395363;19;20506;-43
2023/07/05 11:28:33;;;;;;;11.47;4.27;;;;;;;16.67;100.00;100179.63;7373058;19;20474;-43
2023/07/05 11:31:06;;;;;;;16.60;4.07;;;;;;;16.73;100.00;100174.44;7398004;19;20399;-43
2023/07/05 11:33:36;;;;;;;6.03;2.97;;;;;;;16.76;100.00;100173.59;7371125;19;20966;-43